createdAt,value
2023-01-27T05:01:40.760Z,28.84
2023-01-27T05:04:07.594Z,28.63
2023-01-27T05:06:34.230Z,29.01
2023-01-27T05:09:01.721Z,28.76
2023-01-27T05:11:29.723Z,28.88
2023-01-27T05:13:56.461Z,28.91
2023-01-27T05:16:24.007Z,29.05
2023-01-27T05:18:52.803Z,28.82
2023-01-27T05:21:22.135Z,28.75
2023-01-27T05:23:49.211Z,28.94
2023-01-27T05:26:27.666Z,28.55
2023-01-27T05:28:55.953Z,28.83
2023-01-27T05:31:25.204Z,28.89
2023-01-27T05:33:53.583Z,29.23
2023-01-27T05:36:22.462Z,29.08
2023-01-27T05:38:49.315Z,28.88
2023-01-27T05:41:17.518Z,28.87
2023-01-27T05:43:45.687Z,28.76
2023-01-27T05:46:14.118Z,27.78
2023-01-27T05:48:49.598Z,27.61
2023-01-27T05:51:18.220Z,27.04
2023-01-27T05:53:45.277Z,27.55
2023-01-27T05:56:13.391Z,27.79
2023-01-27T05:58:40.323Z,27.75
2023-01-27T06:01:13.195Z,27.76
2023-01-27T06:03:40.225Z,28.01
2023-01-27T06:06:08.450Z,27.93
2023-01-27T06:08:35.420Z,27.93
2023-01-27T06:11:02.640Z,28.07
2023-01-27T06:13:29.703Z,27.99
2023-01-27T06:15:56.525Z,28.25
2023-01-27T06:18:23.432Z,28.08
2023-01-27T06:20:50.642Z,28.13
2023-01-27T06:23:17.571Z,27.72
2023-01-27T06:25:45.942Z,28.08
2023-01-27T06:28:27.900Z,28.13
2023-01-27T06:30:55.885Z,28.31
2023-01-27T06:33:22.844Z,28.10
2023-01-27T06:35:49.630Z,28.35
2023-01-27T06:38:17.973Z,28.39
2023-01-27T06:40:44.835Z,28.25
2023-01-27T06:43:15.246Z,28.34
2023-01-27T06:45:44.713Z,28.19
2023-01-27T06:48:13.441Z,28.29
2023-01-27T06:50:40.213Z,28.23
2023-01-27T06:53:07.130Z,28.44
2023-01-27T06:55:34.130Z,28.79
2023-01-27T06:58:04.199Z,28.30
2023-01-27T07:00:32.736Z,28.54
2023-01-27T07:03:00.182Z,28.57
2023-01-27T07:05:28.401Z,28.67
2023-01-27T07:07:55.664Z,28.79
2023-01-27T07:10:22.635Z,28.64
2023-01-27T07:12:53.296Z,28.43
2023-01-27T07:15:22.683Z,28.46
2023-01-27T07:17:50.553Z,28.56
2023-01-27T07:20:17.687Z,28.78
2023-01-27T07:22:44.500Z,28.41
2023-01-27T07:25:12.141Z,28.64
2023-01-27T07:27:40.020Z,28.63
2023-01-27T07:30:12.169Z,28.68
2023-01-27T07:32:39.807Z,28.53
2023-01-27T07:35:08.224Z,28.48
2023-01-27T07:37:37.362Z,28.41
2023-01-27T07:40:05.575Z,28.75
2023-01-27T07:42:32.906Z,28.73
2023-01-27T07:45:01.292Z,28.67
2023-01-27T07:47:28.796Z,28.73
2023-01-27T07:49:55.583Z,28.71
2023-01-27T07:52:28.540Z,28.52
2023-01-27T07:54:58.797Z,28.59
2023-01-27T07:57:26.036Z,28.66
2023-01-27T07:59:57.678Z,28.53
2023-01-27T08:02:25.955Z,28.63
2023-01-27T08:04:53.852Z,28.70
2023-01-27T08:07:23.859Z,28.71
2023-01-27T08:09:53.562Z,28.49
2023-01-27T08:12:21.284Z,28.64
2023-01-27T08:14:51.458Z,28.60
2023-01-27T08:17:20.954Z,28.53
2023-01-27T08:19:50.614Z,28.48
2023-01-27T08:22:21.239Z,28.42
2023-01-27T08:24:49.467Z,28.72
2023-01-27T08:27:17.700Z,28.67
2023-01-27T08:29:45.259Z,28.54
2023-01-27T08:32:14.847Z,28.64
2023-01-27T08:34:42.162Z,28.56
2023-01-27T08:37:09.570Z,28.55
2023-01-27T08:39:37.612Z,28.42
2023-01-27T08:42:07.555Z,28.58
2023-01-27T08:44:34.828Z,28.66
2023-01-27T08:47:01.567Z,28.47
2023-01-27T08:49:28.425Z,28.79
2023-01-27T08:51:56.232Z,28.71
2023-01-27T08:54:24.584Z,28.61
2023-01-27T08:56:53.215Z,28.55
2023-01-27T08:59:20.156Z,28.40
2023-01-27T09:01:47.604Z,28.66
2023-01-27T09:04:14.414Z,28.70
2023-01-27T09:06:41.169Z,28.59
2023-01-27T09:09:12.158Z,28.56
2023-01-27T09:11:41.734Z,28.56
2023-01-27T09:14:08.845Z,28.59
2023-01-27T09:16:35.850Z,28.61
2023-01-27T09:19:05.861Z,28.57
2023-01-27T09:21:33.765Z,28.61
2023-01-27T09:24:00.689Z,28.68
2023-01-27T09:26:27.646Z,28.61
2023-01-27T09:28:54.503Z,28.50
2023-01-27T09:31:21.449Z,28.62
2023-01-27T09:33:49.223Z,28.50
2023-01-27T09:36:18.919Z,28.62
2023-01-27T09:38:55.593Z,28.45
2023-01-27T09:41:40.758Z,28.63
2023-01-27T09:44:19.850Z,28.44
2023-01-27T09:46:49.615Z,28.55
2023-01-27T09:49:28.006Z,28.49
2023-01-27T09:52:10.090Z,28.46
2023-01-27T09:54:43.320Z,28.47
2023-01-27T09:57:29.050Z,28.41
2023-01-27T10:00:20.628Z,28.56
2023-01-27T10:03:19.656Z,28.53
2023-01-27T10:06:26.781Z,28.51
2023-01-27T10:09:17.573Z,28.50
2023-01-27T10:12:03.299Z,28.50
2023-01-27T10:14:42.881Z,28.52
2023-01-27T10:17:29.120Z,28.59
2023-01-27T10:20:23.652Z,28.19
2023-01-27T10:23:10.068Z,28.43
2023-01-27T10:25:49.860Z,28.26
2023-01-27T10:28:22.170Z,28.70
2023-01-27T10:30:56.652Z,28.51
2023-01-27T10:33:28.562Z,28.48
2023-01-27T10:36:33.943Z,28.27
2023-01-27T10:39:50.129Z,29.83
2023-01-27T10:43:04.304Z,30.32
2023-01-27T10:45:37.780Z,29.79
2023-01-27T10:48:18.700Z,27.06
2023-01-27T10:51:02.369Z,25.18
2023-01-27T10:53:53.024Z,24.56
2023-01-27T10:56:36.206Z,25.07
2023-01-27T10:59:12.071Z,25.11
2023-01-27T11:02:24.632Z,25.29
2023-01-27T11:04:54.223Z,25.23
2023-01-27T11:07:21.682Z,25.66
2023-01-27T11:10:00.188Z,25.48
2023-01-27T11:12:37.177Z,25.73
2023-01-27T11:15:35.529Z,25.70
2023-01-27T11:18:20.151Z,25.70
2023-01-27T11:20:50.040Z,25.69
2023-01-27T11:23:25.168Z,25.95
2023-01-27T11:26:23.351Z,25.93
2023-01-27T11:29:09.747Z,26.19
2023-01-27T11:32:12.370Z,26.35
2023-01-27T11:34:49.379Z,26.38
2023-01-27T11:37:24.704Z,26.39
2023-01-27T11:39:51.778Z,26.42
2023-01-27T11:42:21.266Z,26.52
2023-01-27T11:44:51.110Z,26.41
2023-01-27T11:47:26.867Z,26.45
2023-01-27T11:49:54.028Z,26.39
2023-01-27T11:52:22.237Z,26.43
2023-01-27T11:55:20.948Z,26.46
2023-01-27T11:58:02.366Z,26.64
2023-01-27T12:00:45.445Z,26.58
2023-01-27T12:03:30.522Z,26.52
2023-01-27T12:06:01.384Z,26.80
2023-01-27T12:08:47.069Z,26.50
2023-01-27T12:11:24.287Z,26.78
2023-01-27T12:14:03.052Z,26.75
2023-01-27T12:16:48.923Z,26.99
2023-01-27T12:19:35.217Z,26.96
2023-01-27T12:22:15.265Z,26.97
2023-01-27T12:24:47.774Z,26.99
2023-01-27T12:27:23.853Z,27.05
2023-01-27T12:30:04.901Z,27.05
2023-01-27T12:32:40.747Z,27.01
2023-01-27T12:35:24.465Z,27.01
2023-01-27T12:37:57.178Z,27.23
2023-01-27T12:40:28.303Z,27.26
2023-01-27T12:43:17.368Z,27.28
2023-01-27T12:45:44.352Z,27.47
2023-01-27T12:48:13.988Z,27.53
2023-01-27T12:50:50.405Z,27.67
2023-01-27T12:53:18.533Z,27.65
2023-01-27T12:55:57.404Z,27.60
2023-01-27T12:58:43.943Z,27.47
2023-01-27T13:01:57.257Z,27.56
2023-01-27T13:04:27.091Z,27.63
2023-01-27T13:07:06.395Z,27.84
2023-01-27T13:09:56.093Z,27.78
2023-01-27T13:12:28.550Z,27.71
2023-01-27T13:15:11.824Z,27.73
2023-01-27T13:17:49.369Z,28.74
2023-01-27T13:20:22.060Z,28.52
2023-01-27T13:23:16.240Z,29.77
2023-01-27T13:25:59.201Z,31.05
2023-01-27T13:28:50.215Z,30.10
2023-01-27T13:31:33.376Z,30.70
2023-01-27T13:34:15.697Z,30.86
2023-01-27T13:36:50.326Z,30.42
2023-01-27T13:39:36.038Z,31.50
2023-01-27T13:42:05.972Z,30.21
2023-01-27T13:44:39.426Z,29.87
2023-01-27T13:47:16.827Z,29.85
2023-01-27T13:49:45.858Z,29.57
2023-01-27T13:52:13.355Z,29.83
2023-01-27T13:54:40.195Z,29.66
2023-01-27T13:57:45.866Z,29.64
2023-01-27T14:00:13.021Z,30.41
2023-01-27T14:03:06.096Z,30.15
2023-01-27T14:06:13.980Z,28.88
2023-01-27T14:09:05.284Z,27.88
2023-01-27T14:11:35.783Z,27.77
2023-01-27T14:14:23.732Z,28.09
2023-01-27T14:17:02.886Z,28.00
2023-01-27T14:19:37.919Z,28.32
2023-01-27T14:22:19.682Z,28.11
2023-01-27T14:25:00.336Z,28.49
2023-01-27T14:27:35.528Z,27.86
2023-01-27T14:30:30.466Z,27.41
2023-01-27T14:33:27.725Z,26.35
2023-01-27T14:36:26.612Z,26.35
2023-01-27T14:39:18.231Z,26.62
2023-01-27T14:41:51.296Z,26.89
2023-01-27T14:44:43.391Z,26.92
2023-01-27T14:47:26.919Z,26.99
2023-01-27T14:49:58.706Z,27.01
2023-01-27T14:52:42.250Z,27.29
2023-01-27T14:55:19.677Z,27.44
2023-01-27T14:57:56.858Z,27.42
2023-01-27T15:00:44.912Z,27.45
2023-01-27T15:03:19.559Z,27.67
2023-01-27T15:06:02.410Z,27.48
2023-01-27T15:08:38.215Z,27.78
2023-01-27T15:11:30.490Z,27.74
2023-01-27T15:14:04.230Z,27.91
2023-01-27T15:16:38.094Z,27.92
2023-01-27T15:19:14.752Z,27.99
2023-01-27T15:22:10.488Z,27.94
2023-01-27T15:24:59.919Z,28.05
2023-01-27T15:27:28.152Z,27.78
2023-01-27T15:29:54.946Z,28.04
2023-01-27T15:32:28.998Z,27.99
2023-01-27T15:35:29.684Z,28.10
2023-01-27T15:38:08.709Z,28.34
2023-01-27T15:40:57.356Z,28.39
2023-01-27T15:43:28.114Z,28.26
2023-01-27T15:45:55.777Z,28.34
2023-01-27T15:48:23.961Z,28.49
2023-01-27T15:51:15.139Z,28.22
2023-01-27T15:53:49.888Z,28.40
2023-01-27T15:56:18.846Z,28.22
2023-01-27T15:58:56.428Z,28.26
2023-01-27T16:01:30.790Z,28.36
2023-01-27T16:04:15.149Z,27.85
2023-01-27T16:07:02.606Z,25.49
2023-01-27T16:09:41.691Z,23.88
2023-01-27T16:12:23.846Z,24.00
2023-01-27T16:15:19.443Z,24.49
2023-01-27T16:18:08.542Z,24.79
2023-01-27T16:21:00.113Z,25.94
2023-01-27T16:23:51.487Z,26.52
2023-01-27T16:26:30.529Z,26.18
2023-01-27T16:29:12.087Z,26.23
2023-01-27T16:31:40.407Z,26.55
2023-01-27T16:34:17.681Z,26.99
2023-01-27T16:36:45.663Z,27.45
2023-01-27T16:39:18.700Z,28.48
2023-01-27T16:41:52.559Z,27.67
2023-01-27T16:44:32.053Z,27.47
2023-01-27T16:47:05.060Z,27.42
2023-01-27T16:49:40.905Z,27.46
2023-01-27T16:52:16.521Z,27.45
2023-01-27T16:54:45.258Z,27.37
2023-01-27T16:57:30.036Z,27.37
2023-01-27T16:59:58.746Z,27.37
2023-01-27T17:02:27.103Z,27.60
2023-01-27T17:04:56.261Z,27.56
2023-01-27T17:07:24.865Z,27.74
2023-01-27T17:09:58.603Z,28.03
2023-01-27T17:12:33.485Z,27.74
2023-01-27T17:15:01.046Z,27.79
2023-01-27T17:17:30.498Z,27.95
2023-01-27T17:20:04.565Z,28.02
2023-01-27T17:22:42.266Z,28.02
2023-01-27T17:25:32.822Z,29.19
2023-01-27T17:28:00.596Z,29.77
2023-01-27T17:30:35.766Z,29.99
2023-01-27T17:33:02.956Z,29.84
2023-01-27T17:35:39.038Z,30.00
2023-01-27T17:38:20.117Z,29.55
2023-01-27T17:40:49.071Z,29.32
2023-01-27T17:43:35.467Z,29.13
2023-01-27T17:46:19.071Z,29.07
2023-01-27T17:48:48.983Z,29.19
2023-01-27T17:51:16.011Z,29.48
2023-01-27T17:53:42.923Z,29.50
2023-01-27T17:56:15.410Z,28.96
2023-01-27T17:58:45.904Z,29.33
2023-01-27T18:01:14.590Z,29.06
2023-01-27T18:03:41.343Z,29.29
2023-01-27T18:06:10.678Z,29.13
2023-01-27T18:08:37.720Z,29.29
2023-01-27T18:11:11.768Z,28.89
2023-01-27T18:13:40.366Z,28.98
2023-01-27T18:16:15.941Z,29.24
2023-01-27T18:18:43.199Z,29.28
2023-01-27T18:21:10.218Z,29.32
2023-01-27T18:23:46.748Z,29.49
2023-01-27T18:26:13.333Z,29.57
2023-01-27T18:28:40.928Z,29.59
2023-01-27T18:31:37.641Z,29.27
2023-01-27T18:34:07.721Z,29.56
2023-01-27T18:36:36.087Z,29.42
2023-01-27T18:39:05.181Z,29.34
2023-01-27T18:41:33.519Z,29.26
2023-01-27T18:44:01.527Z,29.51
2023-01-27T18:46:28.470Z,29.49
2023-01-27T18:48:55.721Z,29.35
2023-01-27T18:51:24.659Z,29.46
2023-01-27T18:53:51.569Z,29.60
2023-01-27T18:56:18.581Z,29.67
2023-01-27T18:58:46.315Z,29.63
2023-01-27T19:01:20.037Z,29.69
2023-01-27T19:03:48.002Z,29.30
2023-01-27T19:06:16.821Z,29.30
2023-01-27T19:08:43.870Z,29.50
2023-01-27T19:11:16.110Z,29.48
2023-01-27T19:13:43.793Z,29.56
2023-01-27T19:16:16.031Z,29.57
2023-01-27T19:18:43.504Z,29.66
2023-01-27T19:21:14.320Z,29.58
2023-01-27T19:23:46.088Z,29.65
2023-01-27T19:26:20.823Z,29.75
2023-01-27T19:28:53.270Z,29.54
2023-01-27T19:31:20.856Z,29.54
2023-01-27T19:33:50.440Z,29.70
2023-01-27T19:36:21.158Z,29.85
2023-01-27T19:39:10.104Z,29.75
2023-01-27T19:41:40.425Z,29.63
2023-01-27T19:44:08.260Z,29.79
2023-01-27T19:46:39.533Z,29.82
2023-01-27T19:49:10.332Z,29.76
2023-01-27T19:51:41.622Z,29.70
2023-01-27T19:54:10.290Z,29.47
2023-01-27T19:56:40.882Z,29.74
2023-01-27T19:59:09.115Z,29.92
2023-01-27T20:01:35.948Z,29.59
2023-01-27T20:04:06.781Z,29.77
2023-01-27T20:06:34.343Z,30.07
2023-01-27T20:09:03.534Z,29.60
2023-01-27T20:11:41.129Z,29.74
2023-01-27T20:14:19.334Z,29.62
2023-01-27T20:16:49.960Z,29.73
2023-01-27T20:19:17.812Z,29.88
2023-01-27T20:21:49.779Z,29.88
2023-01-27T20:24:17.909Z,29.73
2023-01-27T20:26:46.898Z,29.60
2023-01-27T20:29:14.733Z,29.78
2023-01-27T20:31:41.953Z,29.65
2023-01-27T20:34:09.924Z,30.12
2023-01-27T20:36:37.989Z,29.91
2023-01-27T20:39:06.636Z,29.80
2023-01-27T20:41:34.756Z,30.32
2023-01-27T20:44:02.512Z,30.26
2023-01-27T20:46:30.068Z,30.14
2023-01-27T20:49:01.620Z,30.03
2023-01-27T20:51:29.160Z,30.10
2023-01-27T20:54:00.146Z,29.99
2023-01-27T20:56:27.099Z,30.30
2023-01-27T20:58:56.346Z,30.13
2023-01-27T21:01:27.095Z,30.04
2023-01-27T21:03:58.055Z,30.05
2023-01-27T21:06:24.965Z,29.87
2023-01-27T21:08:53.210Z,30.13
2023-01-27T21:11:23.837Z,29.98
2023-01-27T21:13:53.700Z,29.91
2023-01-27T21:16:22.164Z,30.04
2023-01-27T21:18:49.665Z,29.95
2023-01-27T21:21:27.963Z,30.33
2023-01-27T21:23:55.984Z,30.07
2023-01-27T21:26:23.860Z,30.13
2023-01-27T21:28:50.800Z,29.78
2023-01-27T21:31:19.097Z,29.99
2023-01-27T21:33:46.224Z,29.61
2023-01-27T21:36:13.598Z,29.41
2023-01-27T21:38:41.949Z,29.70
2023-01-27T21:41:11.289Z,29.77
2023-01-27T21:43:57.200Z,29.66
2023-01-27T21:46:24.618Z,29.34
2023-01-27T21:48:51.641Z,28.88
2023-01-27T21:51:20.699Z,27.67
2023-01-27T21:53:50.740Z,25.72
2023-01-27T21:56:19.059Z,25.73
2023-01-27T21:58:46.495Z,25.05
2023-01-27T22:01:13.311Z,24.77
2023-01-27T22:03:40.174Z,24.96
2023-01-27T22:06:07.536Z,25.48
2023-01-27T22:08:34.443Z,25.56
2023-01-27T22:11:10.377Z,25.68
2023-01-27T22:13:38.310Z,25.82
2023-01-27T22:16:05.898Z,26.01
2023-01-27T22:18:35.307Z,26.16
2023-01-27T22:21:02.342Z,26.21
2023-01-27T22:23:29.037Z,26.35
2023-01-27T22:25:55.780Z,26.55
2023-01-27T22:28:26.572Z,27.07
